Time;durP1;ratioP1;P1;durP2;ratioP2;P2;SDS_P1;SDS_P2;PMS_P1;PMS_P2;Temp;Humidity;BMP_temperature;BMP_pressure;BME280_temperature;BME280_humidity;BME280_pressure;Samples;Min_cycle;Max_cycle;Signal;HPM_P1;HPM_P2
2022/05/18 00:00:35;;;;;;;9.07;5.47;;;17.10;99.90;;;;;;5034635;28;20041;-76
2022/05/18 00:03:10;;;;;;;14.50;6.05;;;17.10;99.90;;;;;;5030978;28;20126;-75
2022/05/18 00:05:41;;;;;;;7.53;5.70;;;17.00;99.90;;;;;;5039032;28;20110;-76
2022/05/18 00:08:08;;;;;;;8.23;5.43;;;17.00;99.90;;;;;;5051207;28;20045;-76
2022/05/18 00:10:35;;;;;;;9.27;6.32;;;16.90;99.90;;;;;;5026931;28;20038;-76
2022/05/18 00:13:02;;;;;;;9.68;6.00;;;16.90;99.90;;;;;;5034386;28;20169;-75
2022/05/18 00:15:30;;;;;;;7.15;5.68;;;16.90;99.90;;;;;;5028130;28;20029;-76
2022/05/18 00:17:57;;;;;;;10.07;6.32;;;16.80;99.90;;;;;;5015655;28;20028;-75
2022/05/18 00:20:23;;;;;;;11.43;5.93;;;16.70;99.90;;;;;;5034887;28;20052;-76
2022/05/18 00:22:52;;;;;;;8.40;6.00;;;16.70;99.90;;;;;;5056716;28;20403;-75
2022/05/18 00:25:22;;;;;;;10.60;6.22;;;16.60;99.90;;;;;;5054808;28;20041;-76
2022/05/18 00:27:48;;;;;;;9.30;5.72;;;16.60;99.90;;;;;;5052353;28;20525;-75
2022/05/18 00:30:16;;;;;;;8.13;5.28;;;16.60;99.90;;;;;;5037587;28;20056;-75
2022/05/18 00:32:42;;;;;;;8.15;6.22;;;16.50;99.90;;;;;;5039327;28;20057;-76
2022/05/18 00:35:09;;;;;;;9.95;6.30;;;16.50;99.90;;;;;;5040600;28;20483;-76
2022/05/18 00:37:35;;;;;;;8.43;5.60;;;16.40;99.90;;;;;;5054685;28;20119;-75
2022/05/18 00:40:01;;;;;;;7.78;5.93;;;16.40;99.90;;;;;;5054852;28;20544;-76
2022/05/18 00:42:28;;;;;;;9.80;6.05;;;16.40;99.90;;;;;;5033657;28;20539;-75
2022/05/18 00:44:54;;;;;;;9.52;6.45;;;16.30;99.90;;;;;;5058909;28;20028;-75
2022/05/18 00:47:25;;;;;;;9.65;6.32;;;16.40;99.90;;;;;;5041275;28;20033;-75
2022/05/18 00:49:59;;;;;;;8.80;6.70;;;16.30;99.90;;;;;;5056596;28;20034;-75
2022/05/18 00:52:31;;;;;;;11.30;6.60;;;16.30;99.90;;;;;;5051911;28;20043;-75
2022/05/18 00:54:58;;;;;;;10.95;6.20;;;16.30;99.90;;;;;;5056439;28;20041;-75
2022/05/18 00:57:35;;;;;;;8.57;6.35;;;16.30;99.90;;;;;;5033554;28;20490;-76
2022/05/18 01:00:10;;;;;;;10.15;6.85;;;16.30;99.90;;;;;;5054281;28;20040;-76
2022/05/18 01:02:40;;;;;;;11.13;6.35;;;16.20;99.90;;;;;;5050261;28;20486;-75
2022/05/18 01:05:10;;;;;;;11.25;6.65;;;16.30;99.90;;;;;;5053746;28;20099;-75
2022/05/18 01:07:44;;;;;;;12.23;6.63;;;16.20;99.90;;;;;;5049177;28;20045;-75
2022/05/18 01:10:10;;;;;;;9.38;6.93;;;16.20;99.90;;;;;;5052240;28;20031;-76
2022/05/18 01:12:37;;;;;;;10.40;6.47;;;16.20;99.90;;;;;;5019824;28;20109;-76
2022/05/18 01:15:18;;;;;;;8.65;6.88;;;16.20;99.90;;;;;;5065810;28;20040;-75
2022/05/18 01:17:47;;;;;;;13.13;7.38;;;16.20;99.90;;;;;;5047276;28;20406;-76
2022/05/18 01:20:21;;;;;;;10.50;7.35;;;16.20;99.90;;;;;;5035645;28;20052;-75
2022/05/18 01:22:53;;;;;;;8.40;6.90;;;16.20;99.90;;;;;;5050954;28;20507;-76
2022/05/18 01:25:27;;;;;;;16.05;7.18;;;16.20;99.90;;;;;;5052077;28;20036;-76
2022/05/18 01:27:54;;;;;;;8.95;7.50;;;16.10;99.90;;;;;;5038524;28;20056;-75
2022/05/18 01:30:20;;;;;;;9.35;6.63;;;16.10;99.90;;;;;;5052306;28;20107;-75
2022/05/18 01:32:49;;;;;;;9.85;6.55;;;16.10;99.90;;;;;;5034307;28;20041;-75
2022/05/18 01:35:23;;;;;;;11.57;6.70;;;16.00;99.90;;;;;;5050433;28;20033;-76
2022/05/18 01:37:49;;;;;;;8.77;6.03;;;16.00;99.90;;;;;;5057237;28;20159;-75
2022/05/18 01:40:29;;;;;;;10.55;6.75;;;16.00;99.90;;;;;;5055151;28;20040;-76
2022/05/18 01:43:13;;;;;;;8.38;6.35;;;16.00;99.90;;;;;;5054540;28;20041;-76
2022/05/18 01:45:39;;;;;;;10.77;7.35;;;15.90;99.90;;;;;;5049456;28;20051;-76
2022/05/18 01:48:11;;;;;;;9.32;6.72;;;15.90;99.90;;;;;;5049276;28;20037;-76
2022/05/18 01:50:38;;;;;;;9.60;6.22;;;15.90;99.90;;;;;;5052560;28;20580;-76
2022/05/18 01:53:04;;;;;;;11.80;6.47;;;15.80;99.90;;;;;;5017229;28;20036;-77
2022/05/18 01:55:30;;;;;;;11.05;6.70;;;15.80;99.90;;;;;;5051276;28;20040;-76
2022/05/18 01:57:56;;;;;;;10.20;6.13;;;15.80;99.90;;;;;;5052360;28;20075;-76
2022/05/18 02:00:22;;;;;;;7.93;6.70;;;15.80;99.90;;;;;;5035503;28;20033;-76
2022/05/18 02:02:48;;;;;;;9.57;6.60;;;15.80;99.90;;;;;;5035477;28;20040;-75
2022/05/18 02:05:16;;;;;;;9.23;6.75;;;15.70;99.90;;;;;;5036008;28;20037;-75
2022/05/18 02:07:41;;;;;;;9.57;6.85;;;15.80;99.90;;;;;;5037399;28;21399;-75
2022/05/18 02:10:08;;;;;;;11.85;6.85;;;15.70;99.90;;;;;;5030677;28;20040;-76
2022/05/18 02:12:35;;;;;;;10.00;6.70;;;15.70;99.90;;;;;;5051186;28;20390;-75
2022/05/18 02:15:01;;;;;;;10.18;7.10;;;15.70;99.90;;;;;;5034697;28;20336;-75
2022/05/18 02:17:26;;;;;;;12.55;5.90;;;15.60;99.90;;;;;;5035035;28;20032;-76
2022/05/18 02:19:52;;;;;;;10.80;7.10;;;15.60;99.90;;;;;;5035523;28;20048;-76
2022/05/18 02:22:18;;;;;;;9.85;6.88;;;15.60;99.90;;;;;;5021445;28;20033;-76
2022/05/18 02:24:44;;;;;;;8.68;6.50;;;15.60;99.90;;;;;;5037813;28;20486;-76
2022/05/18 02:27:12;;;;;;;9.95;6.43;;;15.50;99.90;;;;;;5051764;28;20123;-76
2022/05/18 02:29:38;;;;;;;12.93;7.03;;;15.50;99.90;;;;;;5046064;28;20041;-76
2022/05/18 02:32:04;;;;;;;8.38;6.07;;;15.50;99.90;;;;;;5035069;28;20478;-77
2022/05/18 02:34:30;;;;;;;11.70;6.07;;;15.50;99.90;;;;;;5049124;28;20041;-75
2022/05/18 02:36:58;;;;;;;10.35;6.28;;;15.50;99.90;;;;;;5036996;28;20048;-76
2022/05/18 02:39:24;;;;;;;10.40;6.70;;;15.40;99.90;;;;;;5020657;28;20490;-76
2022/05/18 02:41:50;;;;;;;11.90;7.00;;;15.50;99.90;;;;;;5016262;28;20192;-76
2022/05/18 02:44:19;;;;;;;9.52;6.05;;;15.40;99.90;;;;;;5045929;28;20040;-76
2022/05/18 02:46:45;;;;;;;11.00;7.03;;;15.40;99.90;;;;;;5037207;28;20040;-76
2022/05/18 02:49:11;;;;;;;10.18;6.78;;;15.40;99.90;;;;;;5053995;28;20042;-76
2022/05/18 02:51:39;;;;;;;8.20;5.90;;;15.40;99.90;;;;;;5034283;28;20075;-77
2022/05/18 02:56:05;;;;;;;11.63;6.57;;;15.40;99.90;;;;;;5046210;28;20088;-76
2022/05/18 02:56:52;;;;;;;10.82;6.72;;;15.30;99.90;;;;;;5049863;28;20041;-76
2022/05/18 02:59:19;;;;;;;10.70;6.70;;;15.30;99.90;;;;;;5051505;28;20095;-76
2022/05/18 03:01:46;;;;;;;8.68;6.78;;;15.30;99.90;;;;;;5053532;28;20040;-77
2022/05/18 03:04:12;;;;;;;8.57;6.47;;;15.20;99.90;;;;;;5039333;28;20075;-76
2022/05/18 03:06:38;;;;;;;9.65;6.97;;;15.20;99.90;;;;;;5034113;28;20041;-76
2022/05/18 03:09:05;;;;;;;8.80;6.10;;;15.20;99.90;;;;;;5016077;28;20048;-76
2022/05/18 03:11:30;;;;;;;7.45;6.68;;;15.20;99.90;;;;;;5049351;28;20513;-76
2022/05/18 03:13:56;;;;;;;8.70;6.88;;;15.20;99.90;;;;;;5047206;28;20119;-76
2022/05/18 03:16:24;;;;;;;11.13;6.80;;;15.10;99.90;;;;;;5033352;28;20490;-76
2022/05/18 03:18:50;;;;;;;12.38;8.02;;;15.10;99.90;;;;;;5045803;28;20489;-76
2022/05/18 03:24:00;;;;;;;12.60;7.20;;;15.10;99.90;;;;;;5046464;28;20053;-76
2022/05/18 03:26:27;;;;;;;10.80;7.28;;;15.00;99.90;;;;;;5005290;28;20125;-76
2022/05/18 03:28:55;;;;;;;12.70;7.25;;;15.00;99.90;;;;;;5032358;28;20045;-76
2022/05/18 03:31:23;;;;;;;11.77;7.10;;;15.00;99.90;;;;;;5029566;28;20450;-76
2022/05/18 03:33:49;;;;;;;10.48;6.80;;;14.90;99.90;;;;;;5043238;28;20107;-76
2022/05/18 03:36:17;;;;;;;13.35;7.35;;;14.90;99.90;;;;;;5048732;28;20036;-76
2022/05/18 03:38:44;;;;;;;14.48;7.80;;;14.90;99.90;;;;;;5035108;28;20506;-76
2022/05/18 03:41:10;;;;;;;11.75;7.43;;;14.90;99.90;;;;;;5029962;28;20120;-76
2022/05/18 03:43:37;;;;;;;9.40;7.20;;;14.90;99.90;;;;;;5016375;28;20132;-76
2022/05/18 03:46:03;;;;;;;12.23;8.13;;;14.80;99.90;;;;;;5052843;28;20487;-78
2022/05/18 03:48:30;;;;;;;9.00;7.25;;;14.80;99.90;;;;;;5029343;28;20094;-76
2022/05/18 03:50:58;;;;;;;10.35;7.18;;;14.80;99.90;;;;;;5036865;28;20103;-76
2022/05/18 03:53:24;;;;;;;11.75;7.65;;;14.80;99.90;;;;;;5036713;28;20119;-77
2022/05/18 03:55:50;;;;;;;8.82;7.05;;;14.70;99.90;;;;;;5051299;28;20379;-76
2022/05/18 03:58:17;;;;;;;10.60;7.28;;;14.70;99.90;;;;;;5031343;28;20048;-76
2022/05/18 04:00:44;;;;;;;13.98;7.60;;;14.70;99.90;;;;;;5021694;28;20033;-76
2022/05/18 04:03:12;;;;;;;11.20;7.47;;;14.70;99.90;;;;;;5034299;28;20040;-76
2022/05/18 04:05:41;;;;;;;10.00;6.75;;;14.70;99.90;;;;;;5035969;28;20494;-76
2022/05/18 04:08:09;;;;;;;10.65;7.95;;;14.60;99.90;;;;;;5022156;28;20453;-76
2022/05/18 04:10:38;;;;;;;10.55;7.75;;;14.50;99.90;;;;;;5044660;28;20577;-76
2022/05/18 04:13:04;;;;;;;11.70;8.05;;;14.50;99.90;;;;;;5031907;28;20041;-76
2022/05/18 04:15:30;;;;;;;9.40;7.28;;;14.50;99.90;;;;;;5051132;28;20037;-76
2022/05/18 04:17:56;;;;;;;14.30;8.07;;;14.50;99.90;;;;;;5052325;28;20121;-76
2022/05/18 04:20:23;;;;;;;9.65;7.72;;;14.40;99.90;;;;;;5032729;28;20041;-76
2022/05/18 04:22:50;;;;;;;10.23;8.45;;;14.50;99.90;;;;;;5049842;28;20036;-76
2022/05/18 04:25:19;;;;;;;8.68;7.50;;;14.40;99.90;;;;;;5051330;28;20043;-76
2022/05/18 04:27:47;;;;;;;13.00;7.82;;;14.50;99.90;;;;;;5050960;28;20139;-76
2022/05/18 04:30:18;;;;;;;9.25;7.75;;;14.50;99.90;;;;;;5031463;28;20477;-76
2022/05/18 04:32:45;;;;;;;12.15;8.40;;;14.50;99.90;;;;;;5017615;28;20060;-76
2022/05/18 04:35:13;;;;;;;14.95;8.63;;;14.50;99.90;;;;;;5051934;28;20055;-76
2022/05/18 04:37:38;;;;;;;10.50;8.38;;;14.50;99.90;;;;;;5046702;28;20042;-77
2022/05/18 04:40:07;;;;;;;11.80;8.23;;;14.50;99.90;;;;;;5047579;28;20114;-77
2022/05/18 04:42:33;;;;;;;11.50;8.13;;;14.60;99.90;;;;;;5033360;28;20064;-77
2022/05/18 04:44:59;;;;;;;12.90;9.02;;;14.60;99.90;;;;;;5044582;28;20131;-77
2022/05/18 04:47:25;;;;;;;14.82;8.70;;;14.60;99.90;;;;;;5038128;28;20115;-78
2022/05/18 04:49:54;;;;;;;12.07;8.60;;;14.60;99.90;;;;;;5052689;28;20044;-76
2022/05/18 04:52:21;;;;;;;10.93;9.20;;;14.70;99.90;;;;;;5035269;28;20465;-76
2022/05/18 04:54:48;;;;;;;10.85;8.50;;;14.70;99.90;;;;;;5049782;28;20040;-76
2022/05/18 04:57:14;;;;;;;12.25;9.32;;;14.80;99.90;;;;;;5054163;28;20111;-77
2022/05/18 04:59:40;;;;;;;12.63;8.80;;;14.80;99.90;;;;;;5047892;28;20054;-78
2022/05/18 05:02:06;;;;;;;13.80;9.13;;;14.80;99.90;;;;;;5051696;28;20036;-76
2022/05/18 05:04:33;;;;;;;12.80;9.45;;;14.90;99.90;;;;;;5020648;28;20048;-76
2022/05/18 05:07:02;;;;;;;12.02;9.55;;;14.90;99.90;;;;;;5066041;28;20051;-76
2022/05/18 05:09:28;;;;;;;13.30;9.02;;;15.00;99.90;;;;;;5036588;28;20119;-76
2022/05/18 05:11:54;;;;;;;13.20;8.93;;;15.10;99.90;;;;;;5034431;28;20124;-76
2022/05/18 05:14:21;;;;;;;13.55;9.10;;;15.10;99.90;;;;;;5038034;28;20501;-76
2022/05/18 05:16:47;;;;;;;14.18;9.75;;;15.20;99.90;;;;;;5034669;28;20040;-77
2022/05/18 05:19:14;;;;;;;14.07;9.63;;;15.20;99.90;;;;;;5054611;28;20045;-76
2022/05/18 05:21:42;;;;;;;13.80;9.68;;;15.30;99.90;;;;;;5036929;28;20041;-76
2022/05/18 05:24:16;;;;;;;12.68;10.05;;;15.30;99.90;;;;;;5033898;28;20044;-76
2022/05/18 05:26:42;;;;;;;16.98;10.63;;;15.40;99.90;;;;;;5037695;28;20040;-76
2022/05/18 05:29:10;;;;;;;14.68;10.48;;;15.40;99.90;;;;;;5032027;28;20048;-76
2022/05/18 05:31:36;;;;;;;17.63;10.23;;;15.50;99.90;;;;;;5055250;28;20119;-76
2022/05/18 05:34:02;;;;;;;15.52;10.45;;;15.50;99.90;;;;;;5034058;28;20773;-76
2022/05/18 05:36:29;;;;;;;12.15;10.80;;;15.60;99.90;;;;;;5049299;28;20039;-76
2022/05/18 05:38:54;;;;;;;14.15;10.82;;;15.70;99.90;;;;;;5050250;28;20036;-76
2022/05/18 05:41:20;;;;;;;15.93;11.20;;;15.70;99.90;;;;;;5018402;28;20033;-76
2022/05/18 05:43:46;;;;;;;12.90;10.82;;;15.80;99.90;;;;;;5052370;28;20138;-70
2022/05/18 05:46:15;;;;;;;14.02;10.52;;;15.80;99.90;;;;;;5035858;28;20443;-70
2022/05/18 05:48:44;;;;;;;15.90;11.20;;;15.90;99.90;;;;;;5051658;28;20036;-71
2022/05/18 05:51:13;;;;;;;15.60;10.32;;;16.00;99.90;;;;;;5039392;28;20049;-70
2022/05/18 05:53:46;;;;;;;16.33;11.13;;;16.10;99.90;;;;;;5051264;28;20391;-70
2022/05/18 05:56:15;;;;;;;15.35;10.65;;;16.20;99.90;;;;;;5055635;28;20032;-70
2022/05/18 05:58:43;;;;;;;19.38;11.23;;;16.20;99.90;;;;;;5053457;28;20036;-70
2022/05/18 06:01:11;;;;;;;14.77;11.32;;;16.30;99.90;;;;;;5050271;28;20036;-71
2022/05/18 06:03:38;;;;;;;18.70;10.70;;;16.40;99.90;;;;;;5047445;28;20043;-70
2022/05/18 06:06:05;;;;;;;14.18;10.88;;;16.50;99.90;;;;;;5017413;28;20045;-71
2022/05/18 06:08:32;;;;;;;14.45;10.55;;;16.70;99.90;;;;;;5028454;28;20048;-70
2022/05/18 06:10:59;;;;;;;13.75;11.68;;;16.80;99.90;;;;;;5037482;28;20040;-70
2022/05/18 06:13:26;;;;;;;14.52;10.70;;;16.90;99.90;;;;;;5055568;28;20517;-70
2022/05/18 06:15:52;;;;;;;22.77;11.68;;;16.90;99.90;;;;;;5038501;28;20452;-70
2022/05/18 06:18:17;;;;;;;14.95;11.25;;;17.00;99.90;;;;;;5053558;28;20116;-70
2022/05/18 06:20:45;;;;;;;17.17;11.30;;;17.10;99.90;;;;;;5055269;28;20040;-70
2022/05/18 06:23:11;;;;;;;10.23;9.13;;;17.20;99.90;;;;;;5037827;28;20041;-72
2022/05/18 06:25:37;;;;;;;14.57;10.23;;;17.30;99.90;;;;;;5017446;28;20091;-72
2022/05/18 06:28:04;;;;;;;12.80;8.88;;;17.50;99.90;;;;;;5043771;28;20135;-72
2022/05/18 06:30:30;;;;;;;13.48;9.95;;;17.60;99.90;;;;;;5038476;28;20033;-71
2022/05/18 06:32:56;;;;;;;26.83;12.27;;;17.70;99.90;;;;;;5052125;28;20740;-72
2022/05/18 06:35:22;;;;;;;14.23;10.52;;;18.00;99.90;;;;;;5019977;28;20048;-72
2022/05/18 06:37:51;;;;;;;13.68;10.02;;;18.00;99.90;;;;;;5048010;28;20040;-70
2022/05/18 06:40:18;;;;;;;14.98;10.90;;;18.10;99.90;;;;;;5033389;28;20533;-70
2022/05/18 06:42:44;;;;;;;17.23;10.68;;;18.20;99.90;;;;;;5032731;28;20079;-70
2022/05/18 06:45:13;;;;;;;24.58;11.32;;;18.30;99.90;;;;;;5049852;28;20102;-71
2022/05/18 06:47:40;;;;;;;17.17;10.27;;;18.40;99.90;;;;;;5031309;28;20048;-71
2022/05/18 06:50:09;;;;;;;16.70;9.75;;;18.50;99.90;;;;;;5038102;28;20490;-70
2022/05/18 06:52:35;;;;;;;15.85;9.82;;;18.70;99.90;;;;;;5036456;28;20119;-71
2022/05/18 06:55:01;;;;;;;14.35;10.32;;;18.80;99.90;;;;;;5043541;28;20037;-70
2022/05/18 06:57:26;;;;;;;16.88;10.25;;;18.90;99.90;;;;;;5029929;28;20187;-71
2022/05/18 06:59:52;;;;;;;11.43;8.95;;;19.10;99.90;;;;;;5017943;28;20336;-71
2022/05/18 07:02:18;;;;;;;10.18;8.48;;;19.20;99.90;;;;;;5029828;28;20050;-71
2022/05/18 07:04:44;;;;;;;11.93;9.07;;;19.40;99.90;;;;;;5049018;28;20068;-71
2022/05/18 07:07:09;;;;;;;11.98;9.20;;;19.60;99.90;;;;;;5029734;28;20387;-71
2022/05/18 07:09:36;;;;;;;10.43;8.90;;;19.80;99.90;;;;;;5057794;28;20127;-71
2022/05/18 07:12:02;;;;;;;16.75;9.18;;;20.00;99.90;;;;;;5002490;28;20049;-71
2022/05/18 07:14:28;;;;;;;11.57;8.65;;;20.20;99.90;;;;;;5016711;28;20124;-71
2022/05/18 07:16:55;;;;;;;13.20;8.85;;;20.30;99.90;;;;;;5049049;28;20383;-71
2022/05/18 07:19:23;;;;;;;10.88;7.97;;;20.40;99.90;;;;;;5029539;28;20053;-71
2022/05/18 07:21:49;;;;;;;11.90;8.85;;;20.60;99.90;;;;;;5026958;28;20044;-71
2022/05/18 07:24:15;;;;;;;12.75;7.78;;;20.70;99.90;;;;;;5035652;28;20124;-71
2022/05/18 07:26:42;;;;;;;11.05;8.38;;;20.90;99.90;;;;;;5033358;28;20040;-71
2022/05/18 07:29:08;;;;;;;20.13;8.48;;;21.00;99.90;;;;;;5032083;28;20080;-71
2022/05/18 07:34:21;;;;;;;11.18;7.63;;;21.30;99.90;;;;;;5064560;28;20041;-71
2022/05/18 07:36:47;;;;;;;13.27;8.07;;;21.50;99.90;;;;;;5032733;28;20044;-71
2022/05/18 07:39:13;;;;;;;14.43;7.85;;;21.70;99.90;;;;;;5034455;28;20037;-71
2022/05/18 07:41:39;;;;;;;14.02;8.00;;;21.70;99.90;;;;;;5048888;28;20426;-71
2022/05/18 07:44:05;;;;;;;9.68;7.47;;;21.80;99.90;;;;;;5015901;28;20047;-71
2022/05/18 07:46:31;;;;;;;8.80;7.25;;;21.80;99.90;;;;;;5025856;28;20041;-71
2022/05/18 07:48:57;;;;;;;11.70;8.05;;;21.90;99.90;;;;;;5041957;28;20261;-71
2022/05/18 07:51:23;;;;;;;12.07;7.55;;;22.10;99.90;;;;;;5029018;28;20033;-71
2022/05/18 07:53:49;;;;;;;8.88;6.95;;;22.30;99.90;;;;;;5054881;28;20040;-71
2022/05/18 07:56:15;;;;;;;12.73;7.75;;;22.50;99.90;;;;;;5035296;28;20041;-71
2022/05/18 07:58:41;;;;;;;10.27;7.47;;;22.60;99.90;;;;;;5041861;28;20475;-71
2022/05/18 08:01:08;;;;;;;7.65;6.75;;;22.80;99.90;;;;;;5029078;28;20533;-71
2022/05/18 08:03:34;;;;;;;12.27;7.03;;;22.90;99.90;;;;;;5028999;28;20048;-71
2022/05/18 08:06:01;;;;;;;8.50;6.43;;;23.10;99.90;;;;;;5030305;28;20045;-71
2022/05/18 08:08:26;;;;;;;8.48;6.28;;;23.30;99.90;;;;;;5042403;28;20191;-71
2022/05/18 08:16:21;;;;;;;12.57;6.22;;;23.70;99.90;;;;;;5034661;28;20080;-71
2022/05/18 08:18:48;;;;;;;10.85;7.35;;;23.80;99.90;;;;;;5031911;28;20075;-71
2022/05/18 08:21:14;;;;;;;11.38;6.30;;;24.00;99.90;;;;;;5032231;28;20418;-71
2022/05/18 08:23:40;;;;;;;9.02;6.22;;;24.20;99.90;;;;;;5018217;28;20119;-71
2022/05/18 08:26:06;;;;;;;9.48;6.35;;;24.30;99.90;;;;;;5048891;28;20059;-70
2022/05/18 08:28:33;;;;;;;8.27;5.85;;;24.40;99.90;;;;;;5048218;28;20570;-71
2022/05/18 08:30:59;;;;;;;8.50;6.35;;;24.50;99.90;;;;;;5032817;28;20044;-71
2022/05/18 08:33:26;;;;;;;7.57;6.15;;;24.60;99.90;;;;;;5031480;28;20464;-69
2022/05/18 08:35:54;;;;;;;9.32;5.90;;;24.80;99.90;;;;;;5047608;28;20037;-69
2022/05/18 08:38:20;;;;;;;9.43;6.72;;;24.90;99.90;;;;;;5023323;28;20124;-69
2022/05/18 08:40:51;;;;;;;10.85;6.38;;;24.90;99.90;;;;;;5045408;28;20040;-69
2022/05/18 08:43:26;;;;;;;8.85;5.85;;;25.00;99.90;;;;;;5052860;28;20048;-69
2022/05/18 08:46:02;;;;;;;8.98;6.00;;;24.90;99.70;;;;;;5051894;28;20048;-69
2022/05/18 08:48:49;;;;;;;7.88;5.60;;;25.10;99.90;;;;;;5027131;28;20529;-69
2022/05/18 08:51:31;;;;;;;10.70;5.40;;;25.20;99.70;;;;;;5048904;28;20076;-69
2022/05/18 08:54:22;;;;;;;10.55;6.43;;;25.30;99.90;;;;;;5035862;28;20114;-69
2022/05/18 08:56:50;;;;;;;7.47;5.57;;;25.40;99.90;;;;;;5032048;28;20037;-69
2022/05/18 08:59:33;;;;;;;8.20;5.47;;;25.50;99.90;;;;;;5046205;28;20041;-70
2022/05/18 09:02:02;;;;;;;8.88;4.65;;;25.50;99.20;;;;;;5056447;28;20421;-69
2022/05/18 09:04:48;;;;;;;10.38;5.70;;;25.70;99.70;;;;;;5035017;28;20045;-71
2022/05/18 09:07:19;;;;;;;9.07;5.93;;;25.90;99.30;;;;;;5035516;28;20057;-71
2022/05/18 09:12:38;;;;;;;5.50;4.72;;;26.00;98.90;;;;;;5040438;28;20048;-71
2022/05/18 09:15:07;;;;;;;8.05;4.90;;;26.00;97.50;;;;;;5002263;28;20037;-72
2022/05/18 09:17:54;;;;;;;8.48;5.93;;;26.00;96.80;;;;;;5017180;28;20132;-71
2022/05/18 09:20:42;;;;;;;10.25;5.00;;;26.10;95.90;;;;;;5031388;28;20107;-71
2022/05/18 09:23:40;;;;;;;6.53;4.28;;;26.10;96.80;;;;;;5014154;28;20049;-72
2022/05/18 09:26:16;;;;;;;5.72;4.85;;;26.30;97.00;;;;;;5047988;28;20069;-72
2022/05/18 09:28:54;;;;;;;6.20;5.35;;;26.40;96.40;;;;;;5034751;28;20088;-71
2022/05/18 09:31:41;;;;;;;7.20;4.90;;;26.50;95.30;;;;;;5034158;28;20060;-71
2022/05/18 09:34:33;;;;;;;8.77;5.40;;;26.50;95.50;;;;;;5031303;28;20487;-71
2022/05/18 09:37:11;;;;;;;8.90;6.25;;;26.60;94.90;;;;;;5030718;28;20257;-72
2022/05/18 09:39:45;;;;;;;8.43;5.63;;;26.50;94.20;;;;;;5030928;28;20037;-72
2022/05/18 09:42:16;;;;;;;7.93;5.63;;;26.60;94.30;;;;;;5030871;28;20534;-72
2022/05/18 09:44:45;;;;;;;11.73;5.85;;;26.70;94.80;;;;;;5031234;28;20037;-71
2022/05/18 09:47:15;;;;;;;9.73;5.38;;;26.80;95.00;;;;;;5047372;28;20049;-71
2022/05/18 09:49:45;;;;;;;7.03;5.20;;;27.00;95.50;;;;;;5014103;28;20167;-71
2022/05/18 09:52:13;;;;;;;7.82;5.15;;;27.10;95.10;;;;;;5030812;28;20061;-72
2022/05/18 09:54:40;;;;;;;7.15;5.10;;;27.20;94.90;;;;;;5030774;28;20052;-71
2022/05/18 09:57:36;;;;;;;8.77;5.70;;;27.40;94.40;;;;;;5047227;28;20071;-71
2022/05/18 10:00:19;;;;;;;7.60;5.95;;;27.40;94.00;;;;;;5054260;28;20048;-79
2022/05/18 10:08:23;;;;;;;9.60;5.35;;;27.60;93.80;;;;;;5037407;28;20072;-77
2022/05/18 10:10:57;;;;;;;6.88;4.82;;;27.70;92.90;;;;;;5040245;28;20572;-79
2022/05/18 10:13:28;;;;;;;6.20;4.70;;;27.80;92.70;;;;;;5039223;28;20818;-80
2022/05/18 10:16:39;;;;;;;6.53;5.50;;;27.90;92.40;;;;;;5040517;28;20511;-80
2022/05/18 10:19:13;;;;;;;6.32;4.72;;;28.00;91.60;;;;;;5041052;28;20128;-79
2022/05/18 10:21:52;;;;;;;6.43;4.95;;;28.00;92.70;;;;;;5022553;28;20033;-77
2022/05/18 10:24:42;;;;;;;6.57;4.68;;;28.20;92.70;;;;;;5037624;28;20052;-77
2022/05/18 10:27:18;;;;;;;11.63;6.20;;;28.30;91.80;;;;;;5038861;28;20056;-78
2022/05/18 10:30:09;;;;;;;6.80;5.20;;;28.40;91.50;;;;;;5037586;28;20056;-78
2022/05/18 10:32:50;;;;;;;7.22;5.00;;;28.40;90.90;;;;;;5056261;28;20045;-76
2022/05/18 10:35:32;;;;;;;7.55;5.13;;;28.50;90.70;;;;;;5039312;28;20120;-78
2022/05/18 10:38:03;;;;;;;7.38;4.68;;;28.60;90.30;;;;;;5019895;28;20067;-79
2022/05/18 10:40:38;;;;;;;7.18;4.38;;;28.60;90.90;;;;;;5008711;28;20033;-79
2022/05/18 10:43:33;;;;;;;8.07;4.63;;;28.70;91.00;;;;;;5036265;28;20128;-78
2022/05/18 10:46:09;;;;;;;10.45;5.85;;;28.80;90.20;;;;;;5036945;28;20099;-78
2022/05/18 10:48:35;;;;;;;6.72;3.95;;;28.70;89.60;;;;;;5021137;28;20116;-77
2022/05/18 10:51:06;;;;;;;4.80;4.22;;;28.80;90.20;;;;;;5028624;28;20539;-77
2022/05/18 10:53:42;;;;;;;6.67;4.50;;;28.80;90.00;;;;;;5045991;28;20072;-77
2022/05/18 10:56:25;;;;;;;10.63;6.75;;;28.50;89.70;;;;;;5040961;28;20177;-77
2022/05/18 10:59:10;;;;;;;9.80;5.45;;;28.20;88.40;;;;;;5041264;28;20568;-77
2022/05/18 11:01:46;;;;;;;6.05;5.13;;;28.10;89.20;;;;;;5039260;28;20512;-77
2022/05/18 11:04:51;;;;;;;8.25;5.25;;;28.20;90.40;;;;;;5035234;28;20535;-77
2022/05/18 11:07:42;;;;;;;7.60;5.07;;;28.00;89.30;;;;;;5032291;28;20071;-77
2022/05/18 11:10:09;;;;;;;7.97;6.03;;;28.00;91.00;;;;;;5016007;28;20045;-76
2022/05/18 11:13:05;;;;;;;9.85;5.57;;;28.20;90.40;;;;;;5032279;28;20257;-74
2022/05/18 11:15:43;;;;;;;7.70;5.80;;;28.40;88.90;;;;;;5026559;28;20396;-74
2022/05/18 11:18:58;;;;;;;7.20;5.07;;;28.50;90.10;;;;;;5034541;28;20094;-75
2022/05/18 11:21:24;;;;;;;9.32;5.72;;;28.40;90.30;;;;;;5006386;28;20091;-75
2022/05/18 11:24:23;;;;;;;8.50;5.93;;;28.60;90.10;;;;;;5036479;28;20109;-75
2022/05/18 11:26:53;;;;;;;9.48;5.82;;;28.70;88.10;;;;;;5035820;28;20550;-75
2022/05/18 11:29:43;;;;;;;7.18;4.20;;;28.80;88.10;;;;;;5023823;28;20502;-74
2022/05/18 11:32:16;;;;;;;10.52;6.13;;;28.80;87.70;;;;;;5022794;28;20068;-75
2022/05/18 11:35:01;;;;;;;8.82;5.07;;;28.90;85.60;;;;;;5039091;28;20052;-75
2022/05/18 11:37:47;;;;;;;9.75;5.38;;;29.00;87.50;;;;;;5050701;28;20059;-75
2022/05/18 11:40:34;;;;;;;6.75;5.30;;;29.00;85.70;;;;;;5038304;28;20494;-75
2022/05/18 11:45:55;;;;;;;8.43;6.10;;;29.20;86.10;;;;;;5022493;28;20052;-72
2022/05/18 11:48:33;;;;;;;21.20;6.95;;;29.10;85.10;;;;;;5002174;28;20053;-73
2022/05/18 11:51:51;;;;;;;11.15;5.28;;;29.10;85.50;;;;;;4988815;28;20049;-73
2022/05/18 11:54:41;;;;;;;7.45;4.70;;;29.30;86.00;;;;;;4931565;28;20042;-74
2022/05/18 11:57:38;;;;;;;7.35;5.30;;;29.30;84.90;;;;;;4944669;28;20046;-73
2022/05/18 12:00:09;;;;;;;7.97;5.60;;;29.50;84.60;;;;;;4990703;28;20041;-73
2022/05/18 12:03:00;;;;;;;6.55;5.30;;;29.60;84.20;;;;;;5016618;28;20688;-74
2022/05/18 12:05:50;;;;;;;7.20;5.50;;;29.70;84.60;;;;;;4998672;28;20568;-75
2022/05/18 12:08:35;;;;;;;8.63;5.38;;;29.70;83.40;;;;;;4999035;28;20573;-75
2022/05/18 12:11:23;;;;;;;8.07;5.50;;;29.90;85.80;;;;;;4996247;28;20068;-74
2022/05/18 12:14:11;;;;;;;6.47;5.40;;;30.00;83.90;;;;;;4986796;28;20037;-75
2022/05/18 12:16:45;;;;;;;8.50;5.20;;;30.10;82.40;;;;;;5004298;28;20037;-75
2022/05/18 12:19:38;;;;;;;6.30;4.50;;;30.10;82.20;;;;;;4987347;28;20090;-75
2022/05/18 12:22:15;;;;;;;8.20;5.20;;;30.10;81.70;;;;;;5013116;28;20496;-75
2022/05/18 12:24:45;;;;;;;5.18;4.68;;;30.10;79.30;;;;;;4998785;28;20073;-75
2022/05/18 12:27:13;;;;;;;8.32;4.72;;;30.20;81.00;;;;;;5000139;28;20428;-75
2022/05/18 12:29:40;;;;;;;8.10;4.35;;;30.10;80.60;;;;;;4984844;28;20053;-75
2022/05/18 12:32:08;;;;;;;16.65;5.32;;;30.30;80.90;;;;;;5000592;28;20403;-75
2022/05/18 12:34:33;;;;;;;11.20;4.85;;;30.50;79.90;;;;;;4982246;28;20155;-75
2022/05/18 12:37:14;;;;;;;9.32;4.95;;;30.50;78.60;;;;;;4998801;28;20124;-75
2022/05/18 12:39:47;;;;;;;6.38;4.43;;;30.10;78.00;;;;;;4998757;28;20247;-75
2022/05/18 12:42:22;;;;;;;9.30;4.65;;;29.80;78.10;;;;;;5000030;28;20041;-75
2022/05/18 12:44:55;;;;;;;8.45;4.68;;;29.70;77.80;;;;;;5000127;28;20058;-75
2022/05/18 12:47:42;;;;;;;7.95;4.22;;;29.80;78.60;;;;;;5016781;28;20049;-75
2022/05/18 12:50:15;;;;;;;7.57;4.45;;;29.90;79.30;;;;;;4998467;28;20136;-75
2022/05/18 12:52:44;;;;;;;9.57;5.05;;;30.10;78.70;;;;;;5017195;28;20593;-75
2022/05/18 12:55:32;;;;;;;8.70;5.10;;;30.00;78.20;;;;;;4983326;28;20620;-75
2022/05/18 12:58:09;;;;;;;6.18;4.55;;;30.00;78.30;;;;;;4997165;28;20041;-76
2022/05/18 13:00:46;;;;;;;6.20;3.80;;;29.70;77.10;;;;;;4983663;28;20038;-75
2022/05/18 13:03:12;;;;;;;8.40;5.88;;;29.80;77.70;;;;;;5002505;28;20049;-75
2022/05/18 13:05:44;;;;;;;7.03;5.35;;;29.90;77.50;;;;;;4998452;28;20164;-75
2022/05/18 13:08:16;;;;;;;11.60;5.00;;;30.10;78.10;;;;;;5000746;28;20048;-75
2022/05/18 13:11:13;;;;;;;9.13;4.30;;;30.20;77.30;;;;;;4997678;28;20034;-75
2022/05/18 13:13:58;;;;;;;5.15;4.00;;;30.40;79.00;;;;;;5008284;28;20053;-74
2022/05/18 13:16:39;;;;;;;6.40;3.70;;;30.50;78.60;;;;;;5009455;28;20124;-74
2022/05/18 13:19:14;;;;;;;7.43;4.53;;;30.60;78.10;;;;;;5000363;28;20053;-74
2022/05/18 13:22:00;;;;;;;7.18;4.68;;;30.20;76.20;;;;;;4998534;28;20106;-74
2022/05/18 13:24:39;;;;;;;7.20;4.00;;;29.90;76.10;;;;;;4982548;28;20124;-74